createdAt,value
2022-11-04T00:01:24.381Z,6.00
2022-11-04T00:03:53.518Z,5.90
2022-11-04T00:06:21.857Z,6.00
2022-11-04T00:08:50.945Z,6.00
2022-11-04T00:11:36.955Z,6.00
2022-11-04T00:14:07.554Z,6.00
2022-11-04T00:16:53.344Z,6.00
2022-11-04T00:19:21.675Z,5.90
2022-11-04T00:22:07.849Z,5.90
2022-11-04T00:24:53.518Z,6.00
2022-11-04T00:27:39.929Z,6.00
2022-11-04T00:30:13.104Z,6.00
2022-11-04T00:32:58.531Z,6.00
2022-11-04T00:35:26.670Z,6.10
2022-11-04T00:37:54.948Z,6.10
2022-11-04T00:40:23.125Z,6.10
2022-11-04T00:42:51.305Z,6.10
2022-11-04T00:45:20.992Z,6.40
2022-11-04T00:47:49.210Z,6.40
2022-11-04T00:50:17.628Z,6.20
2022-11-04T00:52:45.863Z,6.20
2022-11-04T00:55:14.103Z,6.20
2022-11-04T00:57:42.373Z,6.20
2022-11-04T01:00:11.875Z,6.20
2022-11-04T01:02:41.863Z,6.20
2022-11-04T01:05:10.837Z,6.20
2022-11-04T01:07:43.543Z,6.20
2022-11-04T01:10:12.225Z,6.20
2022-11-04T01:12:40.437Z,6.20
2022-11-04T01:15:09.298Z,6.30
2022-11-04T01:17:37.620Z,6.20
2022-11-04T01:20:08.189Z,6.20
2022-11-04T01:22:36.405Z,6.20
2022-11-04T01:25:04.957Z,6.30
2022-11-04T01:27:33.088Z,6.30
2022-11-04T01:30:01.281Z,6.30
2022-11-04T01:32:29.717Z,6.30
2022-11-04T01:34:57.971Z,6.40
2022-11-04T01:37:28.017Z,6.30
2022-11-04T01:39:56.164Z,6.50
2022-11-04T01:42:25.003Z,6.50
2022-11-04T01:45:01.499Z,6.50
2022-11-04T01:47:38.758Z,6.50
2022-11-04T01:50:10.550Z,6.60
2022-11-04T01:52:46.806Z,6.60
2022-11-04T01:55:18.779Z,6.80
2022-11-04T01:57:49.864Z,6.60
2022-11-04T02:00:19.289Z,6.50
2022-11-04T02:03:00.238Z,6.60
2022-11-04T02:05:30.356Z,6.60
2022-11-04T02:08:02.737Z,6.60
2022-11-04T02:10:32.773Z,6.60
2022-11-04T02:13:03.077Z,6.60
2022-11-04T02:15:40.829Z,6.80
2022-11-04T02:18:26.602Z,6.70
2022-11-04T02:21:12.886Z,6.70
2022-11-04T02:24:06.611Z,6.70
2022-11-04T02:27:17.854Z,6.70
2022-11-04T02:30:07.041Z,6.70
2022-11-04T02:33:00.894Z,6.70
2022-11-04T02:35:37.715Z,6.80
2022-11-04T02:38:13.526Z,6.80
2022-11-04T02:40:46.694Z,6.80
2022-11-04T02:43:23.464Z,6.80
2022-11-04T02:45:57.687Z,6.80
2022-11-04T02:48:32.874Z,6.80
2022-11-04T02:51:06.336Z,6.90
2022-11-04T02:53:39.856Z,6.80
2022-11-04T02:56:09.523Z,6.80
2022-11-04T02:58:41.841Z,6.80
2022-11-04T03:01:16.286Z,6.80
2022-11-04T03:03:50.830Z,6.90
2022-11-04T03:06:24.074Z,6.90
2022-11-04T03:08:55.565Z,6.90
2022-11-04T03:11:26.629Z,6.90
2022-11-04T03:13:59.857Z,6.60
2022-11-04T03:16:36.161Z,7.20
2022-11-04T03:19:11.021Z,6.90
2022-11-04T03:21:44.184Z,7.10
2022-11-04T03:24:12.603Z,6.90
2022-11-04T03:26:46.032Z,7.00
2022-11-04T03:29:24.769Z,6.90
2022-11-04T03:32:06.220Z,7.20
2022-11-04T03:34:34.767Z,6.80
2022-11-04T03:37:03.162Z,6.80
2022-11-04T03:39:31.542Z,6.90
2022-11-04T03:42:03.220Z,6.80
2022-11-04T03:44:31.840Z,6.90
2022-11-04T03:47:01.394Z,6.90
2022-11-04T03:49:29.651Z,6.90
2022-11-04T03:51:59.601Z,6.90
2022-11-04T03:54:29.109Z,6.90
2022-11-04T03:57:22.058Z,6.90
2022-11-04T04:00:07.210Z,7.00
2022-11-04T04:02:48.051Z,7.00
2022-11-04T04:05:21.910Z,6.90
2022-11-04T04:07:55.138Z,6.90
2022-11-04T04:10:42.712Z,6.90
2022-11-04T04:13:35.118Z,6.90
2022-11-04T04:16:09.147Z,6.90
2022-11-04T04:18:43.936Z,7.00
2022-11-04T04:21:18.045Z,7.00
2022-11-04T04:24:06.528Z,6.90
2022-11-04T04:26:53.416Z,7.00
2022-11-04T04:29:22.979Z,6.90
2022-11-04T04:31:57.597Z,7.00
2022-11-04T04:34:29.598Z,6.90
2022-11-04T04:37:04.691Z,7.20
2022-11-04T04:39:57.242Z,7.00
2022-11-04T04:42:43.028Z,7.00
2022-11-04T04:45:19.870Z,7.00
2022-11-04T04:47:48.428Z,7.10
2022-11-04T04:50:20.491Z,7.10
2022-11-04T04:52:51.343Z,7.10
2022-11-04T04:55:19.848Z,7.10
2022-11-04T04:57:48.262Z,7.10
2022-11-04T05:00:19.214Z,7.10
2022-11-04T05:02:47.929Z,7.10
2022-11-04T05:05:18.459Z,7.10
2022-11-04T05:07:46.845Z,7.10
2022-11-04T05:10:16.549Z,7.20
2022-11-04T05:13:02.048Z,7.10
2022-11-04T05:15:31.130Z,7.20
2022-11-04T05:18:00.826Z,7.20
2022-11-04T05:20:34.268Z,7.00
2022-11-04T05:23:02.614Z,7.20
2022-11-04T05:25:30.851Z,7.10
2022-11-04T05:28:01.260Z,7.10
2022-11-04T05:30:29.886Z,7.00
2022-11-04T05:33:01.546Z,7.10
2022-11-04T05:35:34.719Z,7.00
2022-11-04T05:38:03.293Z,7.30
2022-11-04T05:40:32.281Z,7.20
2022-11-04T05:43:01.167Z,7.10
2022-11-04T05:45:29.825Z,7.10
2022-11-04T05:48:01.667Z,7.10
2022-11-04T05:50:31.233Z,7.10
2022-11-04T05:53:01.755Z,7.10
2022-11-04T05:55:30.360Z,7.20
2022-11-04T05:57:59.454Z,7.20
2022-11-04T06:00:28.224Z,7.10
2022-11-04T06:02:57.684Z,7.30
2022-11-04T06:05:26.208Z,7.20
2022-11-04T06:07:54.674Z,7.20
2022-11-04T06:10:24.508Z,7.30
2022-11-04T06:12:52.777Z,7.30
2022-11-04T06:15:21.003Z,7.20
2022-11-04T06:17:49.483Z,7.50
2022-11-04T06:20:20.278Z,7.30
2022-11-04T06:22:48.516Z,7.30
2022-11-04T06:25:16.965Z,7.30
2022-11-04T06:27:47.394Z,7.30
2022-11-04T06:30:15.758Z,7.40
2022-11-04T06:32:43.923Z,7.40
2022-11-04T06:35:12.108Z,7.60
2022-11-04T06:37:40.465Z,7.40
2022-11-04T06:40:09.763Z,7.40
2022-11-04T06:42:38.201Z,7.40
2022-11-04T06:45:09.181Z,7.50
2022-11-04T06:47:37.459Z,7.50
2022-11-04T06:50:06.313Z,7.50
2022-11-04T06:52:39.467Z,7.60
2022-11-04T06:55:11.083Z,7.70
2022-11-04T06:57:39.230Z,7.60
2022-11-04T07:00:10.325Z,7.70
2022-11-04T07:02:39.134Z,7.70
2022-11-04T07:05:08.245Z,7.70
2022-11-04T07:07:36.538Z,7.80
2022-11-04T07:10:05.190Z,7.80
2022-11-04T07:12:33.408Z,7.80
2022-11-04T07:15:01.651Z,7.80
2022-11-04T07:17:32.414Z,8.00
2022-11-04T07:20:00.646Z,7.90
2022-11-04T07:22:28.933Z,7.90
2022-11-04T07:24:57.214Z,7.90
2022-11-04T07:27:25.455Z,7.90
2022-11-04T07:29:53.691Z,8.00
2022-11-04T07:32:21.936Z,8.00
2022-11-04T07:34:51.558Z,8.00
2022-11-04T07:37:23.266Z,8.00
2022-11-04T07:39:52.141Z,8.00
2022-11-04T07:42:20.998Z,8.00
2022-11-04T07:44:55.087Z,8.10
2022-11-04T07:47:23.261Z,8.10
2022-11-04T07:49:53.147Z,8.10
2022-11-04T07:52:21.493Z,8.20
2022-11-04T07:54:49.665Z,8.20
2022-11-04T07:57:17.894Z,8.30
2022-11-04T07:59:46.041Z,8.30
2022-11-04T08:02:15.042Z,8.40
2022-11-04T08:04:43.396Z,8.40
2022-11-04T08:07:13.227Z,8.40
2022-11-04T08:09:41.829Z,8.50
2022-11-04T08:12:13.078Z,8.50
2022-11-04T08:14:41.402Z,8.50
2022-11-04T08:17:09.779Z,8.60
2022-11-04T08:19:41.406Z,8.70
2022-11-04T08:22:10.087Z,8.60
2022-11-04T08:24:40.390Z,8.60
2022-11-04T08:27:10.070Z,8.60
2022-11-04T08:29:38.751Z,8.70
2022-11-04T08:32:08.814Z,8.70
2022-11-04T08:34:37.329Z,8.70
2022-11-04T08:37:06.789Z,8.70
2022-11-04T08:39:35.549Z,8.70
2022-11-04T08:42:05.629Z,8.70
2022-11-04T08:44:35.271Z,8.70
2022-11-04T08:47:04.353Z,8.70
2022-11-04T08:49:32.753Z,8.70
2022-11-04T08:52:02.012Z,8.60
2022-11-04T08:54:30.431Z,8.60
2022-11-04T08:56:58.978Z,8.70
2022-11-04T08:59:28.639Z,8.70
2022-11-04T09:01:57.095Z,8.70
2022-11-04T09:04:25.401Z,8.80
2022-11-04T09:06:56.249Z,8.80
2022-11-04T09:09:24.635Z,8.80
2022-11-04T09:11:52.879Z,8.90
2022-11-04T09:14:23.217Z,8.90
2022-11-04T09:16:54.022Z,8.90
2022-11-04T09:19:22.351Z,8.90
2022-11-04T09:21:50.782Z,8.90
2022-11-04T09:24:19.062Z,8.90
2022-11-04T09:26:47.346Z,8.90
2022-11-04T09:29:15.579Z,8.90
2022-11-04T09:31:44.109Z,8.90
2022-11-04T09:34:13.724Z,9.00
2022-11-04T09:36:51.007Z,9.00
2022-11-04T09:39:19.563Z,9.00
2022-11-04T09:42:18.537Z,9.10
2022-11-04T09:45:19.974Z,9.10
2022-11-04T09:47:53.633Z,9.20
2022-11-04T09:50:26.284Z,9.20
2022-11-04T09:52:59.249Z,9.20
2022-11-04T09:55:33.718Z,9.30
2022-11-04T09:58:04.215Z,9.30
2022-11-04T10:00:38.089Z,9.30
2022-11-04T10:03:22.677Z,9.30
2022-11-04T10:06:06.254Z,9.40
2022-11-04T10:08:52.924Z,9.50
2022-11-04T10:11:29.417Z,9.50
2022-11-04T10:14:15.998Z,9.60
2022-11-04T10:16:53.218Z,9.80
2022-11-04T10:19:46.381Z,9.90
2022-11-04T10:22:24.812Z,10.10
2022-11-04T10:25:06.711Z,10.20
2022-11-04T10:27:38.549Z,10.40
2022-11-04T10:30:15.711Z,10.40
2022-11-04T10:32:54.215Z,10.40
2022-11-04T10:35:36.028Z,10.40
2022-11-04T10:38:17.607Z,10.40
2022-11-04T10:40:49.397Z,10.40
2022-11-04T10:43:23.227Z,10.40
2022-11-04T10:46:16.753Z,10.50
2022-11-04T10:48:52.896Z,10.50
2022-11-04T10:51:22.404Z,10.50
2022-11-04T10:54:01.190Z,10.60
2022-11-04T10:56:37.600Z,10.60
2022-11-04T10:59:23.370Z,10.60
2022-11-04T11:01:53.357Z,10.70
2022-11-04T11:04:30.305Z,10.70
2022-11-04T11:07:00.506Z,10.80
2022-11-04T11:09:31.099Z,10.90
2022-11-04T11:12:49.949Z,11.00
2022-11-04T11:15:32.821Z,11.10
2022-11-04T11:18:23.288Z,11.30
2022-11-04T11:21:09.442Z,11.40
2022-11-04T11:23:49.199Z,11.50
2022-11-04T11:26:33.387Z,11.50
2022-11-04T11:29:14.534Z,11.50
2022-11-04T11:32:03.413Z,11.50
2022-11-04T11:34:48.950Z,11.40
2022-11-04T11:37:27.460Z,11.30
2022-11-04T11:40:28.532Z,11.40
2022-11-04T11:43:25.310Z,11.40
2022-11-04T11:46:07.506Z,11.50
2022-11-04T11:48:53.809Z,11.40
2022-11-04T11:51:34.645Z,11.30
2022-11-04T11:54:24.584Z,11.20
2022-11-04T11:57:32.555Z,11.10
2022-11-04T12:03:31.200Z,11.20
2022-11-04T12:09:41.197Z,11.30
2022-11-04T12:12:24.141Z,11.40
2022-11-04T12:15:18.205Z,11.50
2022-11-04T12:18:00.099Z,11.70
2022-11-04T12:20:39.673Z,11.90
2022-11-04T12:23:30.323Z,11.90
2022-11-04T12:26:19.632Z,11.80
2022-11-04T12:29:29.909Z,11.70
2022-11-04T12:32:21.878Z,11.70
2022-11-04T12:35:02.383Z,11.60
2022-11-04T12:37:39.237Z,11.60
2022-11-04T12:40:21.881Z,11.50
2022-11-04T12:43:11.245Z,11.50
2022-11-04T12:45:53.343Z,11.50
2022-11-04T12:48:38.154Z,11.40
2022-11-04T12:51:20.523Z,11.40
2022-11-04T12:54:06.637Z,11.40
2022-11-04T12:56:38.656Z,11.40
2022-11-04T12:59:28.762Z,11.30
2022-11-04T13:02:02.913Z,11.30
2022-11-04T13:04:36.052Z,11.20
2022-11-04T13:07:14.492Z,11.20
2022-11-04T13:09:47.333Z,11.20
2022-11-04T13:12:18.809Z,11.30
2022-11-04T13:14:50.761Z,11.20
2022-11-04T13:17:25.729Z,11.20
2022-11-04T13:19:57.687Z,11.20
2022-11-04T13:22:33.819Z,11.10
2022-11-04T13:25:06.419Z,11.00
2022-11-04T13:27:38.574Z,11.00
2022-11-04T13:30:21.989Z,11.00
2022-11-04T13:32:56.194Z,11.00
2022-11-04T13:35:34.423Z,10.90
2022-11-04T13:38:13.219Z,10.90
2022-11-04T13:40:53.517Z,10.90
2022-11-04T13:43:41.810Z,10.90
2022-11-04T13:46:30.540Z,10.90
2022-11-04T13:49:03.346Z,10.90
2022-11-04T13:51:41.890Z,10.80
2022-11-04T13:54:29.232Z,10.80
2022-11-04T13:57:13.672Z,10.70
2022-11-04T13:59:44.353Z,10.70
2022-11-04T14:02:40.634Z,10.70
2022-11-04T14:05:52.190Z,10.60
2022-11-04T14:08:20.491Z,10.60
2022-11-04T14:11:03.674Z,10.60
2022-11-04T14:14:11.245Z,10.50
2022-11-04T14:16:45.970Z,10.50
2022-11-04T14:19:59.874Z,10.50
2022-11-04T14:22:37.627Z,10.40
2022-11-04T14:25:26.203Z,10.40
2022-11-04T14:27:57.610Z,10.30
2022-11-04T14:30:42.760Z,10.30
2022-11-04T14:33:33.836Z,10.30
2022-11-04T14:36:31.588Z,10.30
2022-11-04T14:39:03.111Z,10.30
2022-11-04T14:41:50.812Z,10.30
2022-11-04T14:44:28.018Z,10.20
2022-11-04T14:47:00.671Z,10.30
2022-11-04T14:49:42.234Z,10.30
2022-11-04T14:52:27.973Z,10.30
2022-11-04T14:54:59.300Z,10.30
2022-11-04T14:57:32.022Z,10.30
2022-11-04T15:00:20.109Z,10.30
2022-11-04T15:02:48.891Z,10.30
2022-11-04T15:05:24.545Z,10.30
2022-11-04T15:07:52.839Z,10.30
2022-11-04T15:10:24.768Z,10.20
2022-11-04T15:12:55.211Z,10.20
2022-11-04T15:15:38.651Z,10.20
2022-11-04T15:18:09.338Z,10.20
2022-11-04T15:20:42.853Z,10.20
2022-11-04T15:23:16.890Z,10.20
2022-11-04T15:25:50.118Z,10.10
2022-11-04T15:28:24.121Z,10.10
2022-11-04T15:31:10.044Z,10.20
2022-11-04T15:33:42.799Z,10.10
2022-11-04T15:36:15.976Z,10.10
2022-11-04T15:38:48.441Z,10.10
2022-11-04T15:41:38.538Z,10.10
2022-11-04T15:44:15.811Z,10.10
2022-11-04T15:46:51.061Z,10.10
2022-11-04T15:49:26.152Z,10.20
2022-11-04T15:51:58.560Z,10.20
2022-11-04T15:54:30.617Z,10.20
2022-11-04T15:57:01.693Z,10.30
2022-11-04T15:59:32.857Z,10.20
2022-11-04T16:02:05.560Z,10.30
2022-11-04T16:04:34.029Z,10.20
2022-11-04T16:07:21.842Z,10.20
2022-11-04T16:09:52.125Z,10.20
2022-11-04T16:12:28.794Z,10.20
2022-11-04T16:15:01.488Z,10.20
2022-11-04T16:17:32.711Z,10.20
2022-11-04T16:20:03.321Z,10.20
2022-11-04T16:22:33.992Z,10.20
2022-11-04T16:25:05.735Z,10.20
2022-11-04T16:27:36.663Z,10.20
2022-11-04T16:30:11.661Z,10.20
2022-11-04T16:32:47.925Z,10.20
2022-11-04T16:35:22.782Z,10.20
2022-11-04T16:37:53.151Z,10.20
2022-11-04T16:40:23.971Z,10.20
2022-11-04T16:42:53.885Z,10.20
2022-11-04T16:45:27.171Z,10.20
2022-11-04T16:47:57.428Z,10.20
2022-11-04T16:50:26.219Z,10.10
2022-11-04T16:52:55.027Z,10.10
2022-11-04T16:55:24.390Z,10.10
2022-11-04T16:57:59.069Z,10.10
2022-11-04T17:00:28.414Z,10.10
2022-11-04T17:02:58.021Z,10.10
2022-11-04T17:05:26.228Z,10.10
2022-11-04T17:08:00.074Z,10.10
2022-11-04T17:10:33.368Z,10.00
2022-11-04T17:13:01.585Z,10.00
2022-11-04T17:15:29.832Z,10.00
2022-11-04T17:17:59.487Z,10.00
2022-11-04T17:20:27.752Z,9.90
2022-11-04T17:22:56.016Z,9.90
2022-11-04T17:25:26.174Z,9.90
2022-11-04T17:27:55.027Z,9.90
2022-11-04T17:30:24.500Z,9.90
2022-11-04T17:32:52.934Z,9.90
2022-11-04T17:35:22.694Z,9.90
2022-11-04T17:37:55.904Z,9.80
2022-11-04T17:40:25.157Z,9.90
2022-11-04T17:43:25.527Z,9.90
2022-11-04T17:46:15.440Z,9.90
2022-11-04T17:48:43.944Z,9.90
2022-11-04T17:51:17.972Z,9.90
2022-11-04T17:53:46.157Z,9.90
2022-11-04T17:56:15.889Z,9.90
2022-11-04T17:58:44.121Z,9.90
2022-11-04T18:01:14.329Z,9.90
2022-11-04T18:03:43.506Z,9.90
2022-11-04T18:06:13.565Z,9.90
2022-11-04T18:08:41.881Z,9.80
2022-11-04T18:11:12.418Z,9.80
2022-11-04T18:13:39.569Z,9.80
2022-11-04T18:16:11.504Z,9.80
2022-11-04T18:18:39.762Z,9.80
2022-11-04T18:21:10.861Z,9.80
2022-11-04T18:23:40.463Z,9.90
2022-11-04T18:26:10.340Z,9.90
2022-11-04T18:28:38.660Z,9.90
2022-11-04T18:31:09.333Z,9.80
2022-11-04T18:33:38.392Z,9.90
2022-11-04T18:36:07.466Z,9.80
2022-11-04T18:38:35.759Z,9.80
2022-11-04T18:41:05.558Z,9.80
2022-11-04T18:43:33.661Z,9.80
2022-11-04T18:46:08.213Z,9.80
2022-11-04T18:48:39.508Z,9.80
2022-11-04T18:51:12.773Z,9.80
2022-11-04T18:53:42.161Z,9.80
2022-11-04T18:56:14.779Z,9.80
2022-11-04T18:58:44.990Z,9.80
2022-11-04T19:01:18.328Z,9.70
2022-11-04T19:03:46.814Z,9.70
2022-11-04T19:06:17.330Z,9.70
2022-11-04T19:08:46.995Z,9.70
2022-11-04T19:11:19.687Z,9.70
2022-11-04T19:13:51.993Z,9.70
2022-11-04T19:16:20.472Z,9.70
2022-11-04T19:18:49.508Z,9.70
2022-11-04T19:21:20.467Z,9.70
2022-11-04T19:23:49.221Z,9.70
2022-11-04T19:26:20.914Z,9.70
2022-11-04T19:28:50.287Z,9.70
2022-11-04T19:31:21.331Z,9.70
2022-11-04T19:33:50.331Z,9.70
2022-11-04T19:36:24.578Z,9.70
2022-11-04T19:38:57.756Z,9.70
2022-11-04T19:41:45.333Z,9.70
2022-11-04T19:44:15.893Z,9.60
2022-11-04T19:46:44.583Z,9.60
2022-11-04T19:49:13.740Z,9.60
2022-11-04T19:51:42.397Z,9.50
2022-11-04T19:54:11.231Z,9.60
2022-11-04T19:56:40.880Z,9.50
2022-11-04T19:59:10.234Z,9.50
2022-11-04T20:01:38.853Z,9.40
2022-11-04T20:04:07.530Z,9.40
2022-11-04T20:06:38.658Z,9.40
2022-11-04T20:09:10.999Z,9.40
2022-11-04T20:11:56.430Z,9.40
2022-11-04T20:14:24.940Z,9.40
2022-11-04T20:16:53.632Z,9.40
2022-11-04T20:19:23.194Z,9.40
2022-11-04T20:21:51.947Z,9.40
2022-11-04T20:24:20.251Z,9.30
2022-11-04T20:26:49.928Z,9.30
2022-11-04T20:29:18.561Z,9.30
2022-11-04T20:31:47.070Z,9.30
2022-11-04T20:34:16.269Z,9.30
2022-11-04T20:36:44.710Z,9.30
2022-11-04T20:39:15.536Z,9.30
2022-11-04T20:41:44.148Z,9.20
2022-11-04T20:44:14.421Z,9.20
2022-11-04T20:46:43.463Z,9.20
2022-11-04T20:49:12.572Z,9.30
2022-11-04T20:51:47.536Z,9.30
2022-11-04T20:54:18.602Z,9.30
2022-11-04T20:56:46.952Z,9.20
2022-11-04T20:59:16.791Z,9.20
2022-11-04T21:01:48.398Z,9.20
2022-11-04T21:04:19.868Z,9.20
2022-11-04T21:06:49.094Z,9.20
2022-11-04T21:09:19.174Z,9.10
2022-11-04T21:11:47.296Z,9.10
2022-11-04T21:14:19.480Z,9.10
2022-11-04T21:16:47.967Z,9.10
2022-11-04T21:19:16.908Z,9.10
2022-11-04T21:21:47.059Z,9.10
2022-11-04T21:24:17.404Z,9.10
2022-11-04T21:26:46.723Z,9.20
2022-11-04T21:29:19.424Z,9.20
2022-11-04T21:31:49.003Z,9.20
2022-11-04T21:34:17.339Z,9.20
2022-11-04T21:36:45.600Z,9.20
2022-11-04T21:39:14.554Z,9.20
2022-11-04T21:41:42.777Z,9.30
2022-11-04T21:44:13.457Z,9.30
2022-11-04T21:46:43.619Z,9.30
2022-11-04T21:49:14.113Z,9.30
2022-11-04T21:51:42.459Z,9.30
2022-11-04T21:54:11.860Z,9.30
2022-11-04T21:56:40.142Z,9.40
2022-11-04T21:59:08.322Z,9.40
2022-11-04T22:01:36.576Z,9.30
2022-11-04T22:04:06.550Z,9.30
2022-11-04T22:06:35.874Z,9.40
2022-11-04T22:09:06.131Z,9.30
2022-11-04T22:11:38.962Z,9.30
2022-11-04T22:14:08.731Z,9.30
2022-11-04T22:16:39.269Z,9.30
2022-11-04T22:19:11.099Z,9.20
2022-11-04T22:21:41.420Z,9.30
2022-11-04T22:24:12.237Z,9.30
2022-11-04T22:26:40.984Z,9.30
2022-11-04T22:29:12.021Z,9.30
2022-11-04T22:31:42.777Z,9.30
2022-11-04T22:34:12.553Z,9.30
2022-11-04T22:36:40.810Z,9.20
2022-11-04T22:39:16.022Z,9.30
2022-11-04T22:41:46.336Z,9.30
2022-11-04T22:44:14.965Z,9.30
2022-11-04T22:46:43.768Z,9.20
2022-11-04T22:49:14.437Z,9.30
2022-11-04T22:51:42.653Z,9.30
2022-11-04T22:54:11.748Z,9.30
2022-11-04T22:56:39.964Z,9.20
2022-11-04T22:59:08.886Z,9.30
2022-11-04T23:01:37.184Z,9.30
2022-11-04T23:04:06.511Z,9.30
2022-11-04T23:06:36.225Z,9.30
2022-11-04T23:09:11.170Z,9.30
2022-11-04T23:11:57.190Z,9.20
2022-11-04T23:14:43.611Z,9.30
2022-11-04T23:17:34.639Z,9.30
2022-11-04T23:20:03.323Z,9.30
2022-11-04T23:22:50.549Z,9.20
2022-11-04T23:25:18.739Z,9.30
2022-11-04T23:28:10.928Z,9.20
2022-11-04T23:30:41.548Z,9.30
2022-11-04T23:33:11.232Z,9.30
2022-11-04T23:35:59.434Z,9.30
2022-11-04T23:38:29.722Z,9.30
2022-11-04T23:41:20.924Z,9.30
2022-11-04T23:43:49.131Z,9.30
2022-11-04T23:46:49.458Z,9.30
2022-11-04T23:49:57.185Z,9.20
2022-11-04T23:52:42.575Z,9.30
2022-11-04T23:55:29.749Z,9.20
2022-11-04T23:58:15.529Z,9.10
